createdAt,value
2018-07-02T00:00:38.110Z,4.47
2018-07-02T00:03:08.800Z,3.50
2018-07-02T00:05:50.179Z,3.10
2018-07-02T00:08:19.673Z,2.73
2018-07-02T00:10:48.964Z,2.93
2018-07-02T00:13:18.518Z,2.83
2018-07-02T00:15:47.869Z,3.13
2018-07-02T00:18:17.310Z,2.60
2018-07-02T00:20:46.829Z,3.00
2018-07-02T00:23:16.346Z,2.53
2018-07-02T00:25:45.893Z,2.20
2018-07-02T00:28:15.352Z,1.80
2018-07-02T00:30:45.043Z,1.90
2018-07-02T00:33:14.630Z,2.00
2018-07-02T00:35:44.115Z,1.90
2018-07-02T00:38:13.752Z,1.43
2018-07-02T00:40:43.113Z,1.40
2018-07-02T00:43:12.628Z,1.53
2018-07-02T00:45:42.074Z,1.57
2018-07-02T00:48:11.618Z,1.53
2018-07-02T00:50:41.140Z,1.60
2018-07-02T00:53:10.559Z,1.53
2018-07-02T00:55:40.068Z,1.40
2018-07-02T00:58:09.637Z,1.30
2018-07-02T01:00:39.102Z,1.47
2018-07-02T01:03:08.682Z,1.37
2018-07-02T01:05:38.022Z,1.30
2018-07-02T01:08:07.742Z,1.23
2018-07-02T01:10:37.174Z,1.50
2018-07-02T01:13:06.826Z,1.50
2018-07-02T01:15:36.349Z,1.90
2018-07-02T01:18:05.669Z,1.67
2018-07-02T01:20:35.137Z,2.10
2018-07-02T01:23:04.620Z,1.60
2018-07-02T01:25:34.168Z,1.70
2018-07-02T01:28:03.567Z,1.77
2018-07-02T01:30:33.179Z,2.00
2018-07-02T01:33:02.713Z,2.47
2018-07-02T01:35:32.169Z,2.10
2018-07-02T01:38:01.722Z,2.30
2018-07-02T01:40:31.230Z,2.07
2018-07-02T01:43:00.602Z,1.83
2018-07-02T01:45:30.075Z,2.20
2018-07-02T01:47:59.486Z,2.10
2018-07-02T01:50:28.949Z,1.80
2018-07-02T01:52:58.448Z,1.67
2018-07-02T01:55:27.890Z,1.60
2018-07-02T01:57:57.330Z,1.70
2018-07-02T02:00:26.628Z,1.47
2018-07-02T02:02:56.203Z,1.70
2018-07-02T02:05:25.673Z,2.20
2018-07-02T02:07:55.139Z,1.47
2018-07-02T02:10:24.773Z,1.90
2018-07-02T02:12:54.142Z,1.50
2018-07-02T02:15:23.744Z,1.67
2018-07-02T02:17:53.357Z,1.80
2018-07-02T02:20:22.843Z,2.00
2018-07-02T02:22:52.393Z,1.80
2018-07-02T02:25:21.804Z,1.60
2018-07-02T02:27:51.269Z,1.77
2018-07-02T02:30:20.691Z,1.60
2018-07-02T02:32:50.185Z,1.70
2018-07-02T02:35:19.590Z,1.33
2018-07-02T02:37:48.913Z,1.30
2018-07-02T02:40:18.423Z,1.33
2018-07-02T02:42:48.034Z,1.30
2018-07-02T02:45:17.653Z,1.40
2018-07-02T02:47:47.143Z,1.60
2018-07-02T02:50:16.648Z,1.50
2018-07-02T02:52:46.057Z,1.30
2018-07-02T02:55:15.511Z,1.60
2018-07-02T02:57:45.006Z,1.40
2018-07-02T03:00:14.499Z,1.30
2018-07-02T03:02:44.013Z,1.60
2018-07-02T03:05:13.514Z,1.90
2018-07-02T03:07:42.932Z,1.80
2018-07-02T03:10:12.522Z,1.80
2018-07-02T03:12:42.032Z,1.83
2018-07-02T03:15:11.357Z,2.10
2018-07-02T03:17:40.942Z,1.77
2018-07-02T03:20:13.442Z,1.60
2018-07-02T03:22:42.898Z,1.40
2018-07-02T03:25:12.346Z,1.53
2018-07-02T03:27:41.849Z,1.50
2018-07-02T03:30:11.433Z,1.77
2018-07-02T03:32:41.003Z,1.90
2018-07-02T03:35:11.273Z,1.77
2018-07-02T03:37:40.820Z,1.70
2018-07-02T03:40:10.300Z,1.67
2018-07-02T03:42:39.628Z,1.70
2018-07-02T03:45:10.107Z,1.50
2018-07-02T03:47:39.574Z,1.70
2018-07-02T03:50:09.111Z,1.70
2018-07-02T03:52:38.456Z,1.57
2018-07-02T03:55:07.884Z,1.90
2018-07-02T03:57:37.387Z,1.80
2018-07-02T04:00:06.871Z,1.60
2018-07-02T04:02:36.520Z,1.50
2018-07-02T04:05:05.992Z,2.07
2018-07-02T04:07:35.549Z,2.03
2018-07-02T04:10:05.120Z,2.30
2018-07-02T04:12:34.773Z,2.20
2018-07-02T04:15:04.398Z,2.33
2018-07-02T04:17:33.745Z,2.10
2018-07-02T04:20:03.128Z,2.30
2018-07-02T04:22:32.596Z,2.60
2018-07-02T04:25:02.158Z,2.10
2018-07-02T04:27:31.569Z,1.90
2018-07-02T04:30:01.029Z,1.80
2018-07-02T04:32:30.428Z,1.90
2018-07-02T04:34:59.916Z,1.70
2018-07-02T04:37:29.420Z,1.80
2018-07-02T04:39:59.093Z,1.63
2018-07-02T04:42:28.564Z,1.80
2018-07-02T04:44:58.085Z,1.80
2018-07-02T04:47:27.567Z,1.77
2018-07-02T04:49:57.111Z,1.63
2018-07-02T04:52:26.607Z,1.70
2018-07-02T04:54:56.197Z,1.60
2018-07-02T04:57:25.708Z,1.47
2018-07-02T04:59:55.241Z,1.80
2018-07-02T05:02:25.040Z,2.00
2018-07-02T05:04:54.655Z,1.87
2018-07-02T05:07:24.223Z,1.70
2018-07-02T05:09:53.752Z,1.90
2018-07-02T05:12:23.264Z,2.07
2018-07-02T05:14:53.732Z,1.90
2018-07-02T05:17:23.159Z,1.90
2018-07-02T05:19:52.616Z,1.50
2018-07-02T05:22:22.127Z,1.70
2018-07-02T05:24:52.667Z,1.60
2018-07-02T05:27:22.110Z,1.60
2018-07-02T05:29:51.490Z,1.43
2018-07-02T05:32:21.001Z,1.90
2018-07-02T05:34:50.352Z,1.50
2018-07-02T05:37:19.725Z,1.60
2018-07-02T05:39:50.258Z,1.40
2018-07-02T05:42:19.662Z,1.60
2018-07-02T05:44:49.132Z,1.53
2018-07-02T05:47:18.811Z,1.50
2018-07-02T05:49:48.257Z,1.40
2018-07-02T05:52:17.634Z,1.47
2018-07-02T05:54:47.044Z,1.47
2018-07-02T05:57:16.531Z,1.50
2018-07-02T05:59:46.008Z,1.70
2018-07-02T06:02:15.549Z,1.60
2018-07-02T06:04:45.032Z,1.60
2018-07-02T06:07:14.511Z,1.50
2018-07-02T06:09:43.954Z,1.30
2018-07-02T06:12:13.271Z,1.50
2018-07-02T06:14:42.898Z,1.60
2018-07-02T06:17:12.304Z,1.53
2018-07-02T06:19:41.768Z,1.87
2018-07-02T06:22:11.225Z,1.40
2018-07-02T06:24:40.513Z,1.60
2018-07-02T06:27:09.961Z,1.47
2018-07-02T06:29:39.331Z,1.57
2018-07-02T06:32:09.039Z,1.67
2018-07-02T06:34:38.592Z,1.73
2018-07-02T06:37:08.134Z,1.40
2018-07-02T06:39:37.833Z,1.53
2018-07-02T06:42:07.177Z,1.60
2018-07-02T06:44:36.833Z,1.57
2018-07-02T06:47:07.544Z,1.40
2018-07-02T06:49:37.101Z,1.40
2018-07-02T06:52:06.537Z,1.57
2018-07-02T06:54:36.029Z,1.40
2018-07-02T06:57:07.561Z,1.50
2018-07-02T06:59:36.996Z,1.60
2018-07-02T07:02:07.501Z,1.40
2018-07-02T07:04:37.014Z,1.43
2018-07-02T07:07:06.609Z,1.40
2018-07-02T07:09:36.740Z,1.40
2018-07-02T07:12:06.255Z,1.40
2018-07-02T07:14:35.744Z,1.30
2018-07-02T07:17:05.302Z,1.77
2018-07-02T07:19:34.883Z,1.50
2018-07-02T07:22:04.749Z,1.50
2018-07-02T07:24:34.227Z,1.40
2018-07-02T07:27:03.839Z,1.67
2018-07-02T07:29:33.319Z,1.80
2018-07-02T07:32:02.961Z,1.60
2018-07-02T07:34:32.444Z,1.70
2018-07-02T07:37:01.950Z,1.57
2018-07-02T07:39:31.321Z,1.60
2018-07-02T07:42:00.722Z,1.37
2018-07-02T07:44:30.342Z,1.57
2018-07-02T07:46:59.773Z,1.30
2018-07-02T07:49:29.045Z,1.40
2018-07-02T07:51:58.572Z,1.60
2018-07-02T07:54:28.006Z,1.60
2018-07-02T07:56:57.445Z,1.70
2018-07-02T07:59:27.024Z,1.73
2018-07-02T08:01:56.550Z,1.57
2018-07-02T08:04:26.990Z,1.60
2018-07-02T08:06:56.551Z,1.30
2018-07-02T08:09:27.009Z,1.60
2018-07-02T08:11:56.364Z,1.97
2018-07-02T08:14:25.854Z,1.50
2018-07-02T08:16:55.326Z,1.53
2018-07-02T08:19:25.014Z,1.30
2018-07-02T08:21:54.925Z,1.57
2018-07-02T08:24:24.426Z,1.30
2018-07-02T08:26:54.316Z,1.60
2018-07-02T08:29:23.949Z,1.53
2018-07-02T08:31:53.512Z,1.50
2018-07-02T08:34:23.212Z,1.60
2018-07-02T08:36:52.722Z,1.30
2018-07-02T08:39:22.151Z,1.60
2018-07-02T08:41:51.793Z,1.37
2018-07-02T08:44:21.085Z,1.40
2018-07-02T08:46:50.804Z,1.40
2018-07-02T08:49:20.117Z,1.50
2018-07-02T08:51:49.715Z,1.53
2018-07-02T08:54:19.210Z,1.60
2018-07-02T08:56:48.778Z,1.30
2018-07-02T08:59:18.255Z,1.70
2018-07-02T09:01:47.727Z,1.47
2018-07-02T09:04:17.207Z,1.70
2018-07-02T09:06:46.490Z,1.50
2018-07-02T09:09:16.027Z,1.37
2018-07-02T09:11:45.392Z,1.43
2018-07-02T09:14:14.862Z,1.40
2018-07-02T09:16:44.379Z,1.20
2018-07-02T09:19:14.204Z,1.60
2018-07-02T09:21:43.553Z,1.60
2018-07-02T09:28:21.508Z,1.50
2018-07-02T09:30:51.523Z,1.50
2018-07-02T09:33:21.608Z,1.30
2018-07-02T09:35:51.528Z,1.60
2018-07-02T09:38:21.790Z,1.43
2018-07-02T09:40:51.822Z,1.53
2018-07-02T09:43:22.026Z,1.40
2018-07-02T09:45:52.094Z,1.70
2018-07-02T09:48:22.046Z,1.50
2018-07-02T09:50:52.104Z,1.50
2018-07-02T09:53:22.187Z,1.60
2018-07-02T09:55:52.081Z,1.53
2018-07-02T09:58:22.251Z,1.50
2018-07-02T10:00:52.207Z,1.50
2018-07-02T10:03:22.398Z,1.63
2018-07-02T10:05:52.392Z,1.40
2018-07-02T10:08:22.344Z,1.20
2018-07-02T10:10:52.507Z,1.50
2018-07-02T10:13:22.517Z,1.43
2018-07-02T10:15:52.510Z,1.70
2018-07-02T10:18:23.427Z,1.40
2018-07-02T10:20:53.173Z,1.47
2018-07-02T10:23:23.198Z,1.40
2018-07-02T10:25:53.323Z,2.93
2018-07-02T10:28:23.271Z,1.57
2018-07-02T10:30:53.160Z,1.40
2018-07-02T10:33:23.271Z,1.60
2018-07-02T10:35:53.191Z,1.80
2018-07-02T10:38:23.098Z,1.67
2018-07-02T10:40:53.231Z,1.53
2018-07-02T10:50:22.679Z,1.40
2018-07-02T10:52:53.735Z,1.70
2018-07-02T10:55:23.856Z,1.40
2018-07-02T10:57:53.674Z,1.63
2018-07-02T11:00:23.348Z,1.80
2018-07-02T11:02:53.452Z,1.60
2018-07-02T11:05:23.392Z,1.57
2018-07-02T11:07:53.427Z,1.50
2018-07-02T11:10:23.531Z,1.73
2018-07-02T11:12:53.521Z,1.50
2018-07-02T11:15:23.322Z,1.67
2018-07-02T11:17:53.415Z,1.40
2018-07-02T11:20:23.486Z,1.53
2018-07-02T11:22:53.275Z,1.93
2018-07-02T11:25:23.219Z,1.83
2018-07-02T11:27:53.216Z,1.60
2018-07-02T11:30:23.272Z,1.90
2018-07-02T11:32:53.407Z,1.60
2018-07-02T11:35:23.578Z,1.60
2018-07-02T11:37:53.629Z,1.83
2018-07-02T11:40:23.579Z,1.80
2018-07-02T11:42:53.469Z,1.73
2018-07-02T11:45:23.343Z,1.70
2018-07-02T11:47:53.205Z,1.53
2018-07-02T11:50:23.204Z,1.60
2018-07-02T11:52:53.086Z,1.50
2018-07-02T11:55:24.197Z,1.80
2018-07-02T11:57:54.147Z,1.67
2018-07-02T12:00:24.279Z,1.50
2018-07-02T12:02:54.168Z,1.30
2018-07-02T12:05:24.349Z,1.40
2018-07-02T12:07:54.262Z,1.70
2018-07-02T12:10:24.148Z,1.60
2018-07-02T12:12:54.216Z,1.50
2018-07-02T12:15:24.249Z,1.70
2018-07-02T12:17:54.054Z,1.40
2018-07-02T12:20:24.245Z,1.50
2018-07-02T12:22:53.975Z,1.50
2018-07-02T12:25:23.876Z,1.60
2018-07-02T12:27:53.818Z,1.60
2018-07-02T12:30:23.777Z,1.70
2018-07-02T12:32:53.770Z,1.50
2018-07-02T12:35:24.480Z,1.60
2018-07-02T12:37:54.420Z,1.67
2018-07-02T12:40:24.353Z,1.63
2018-07-02T12:42:54.253Z,1.73
2018-07-02T12:45:24.563Z,1.77
2018-07-02T12:47:55.723Z,1.73
2018-07-02T12:50:26.204Z,1.70
2018-07-02T12:52:56.358Z,1.70
2018-07-02T12:55:26.376Z,1.80
2018-07-02T12:57:56.397Z,1.70
2018-07-02T13:00:26.424Z,1.80
2018-07-02T13:02:56.252Z,1.70
2018-07-02T13:05:26.343Z,1.50
2018-07-02T13:07:56.336Z,1.60
2018-07-02T13:10:26.472Z,1.70
2018-07-02T13:12:57.793Z,1.40
2018-07-02T13:15:27.896Z,1.47
2018-07-02T13:17:58.966Z,1.67
2018-07-02T13:20:29.156Z,1.63
2018-07-02T13:22:58.949Z,1.60
2018-07-02T13:25:28.839Z,1.70
2018-07-02T13:27:59.129Z,1.60
2018-07-02T13:30:28.952Z,1.50
2018-07-02T13:32:59.025Z,1.50
2018-07-02T13:35:29.042Z,1.70
2018-07-02T13:37:59.153Z,1.50
2018-07-02T13:40:29.140Z,1.70
2018-07-02T13:42:59.127Z,1.60
2018-07-02T13:45:29.175Z,1.97
2018-07-02T13:47:59.199Z,2.10
2018-07-02T13:50:29.207Z,1.60
2018-07-02T13:52:59.017Z,1.63
2018-07-02T13:55:29.167Z,1.67
2018-07-02T13:57:59.267Z,1.70
2018-07-02T14:00:29.291Z,1.60
2018-07-02T14:02:59.473Z,1.50
2018-07-02T14:05:29.241Z,1.50
2018-07-02T14:07:59.464Z,1.70
2018-07-02T14:10:29.504Z,1.60
2018-07-02T14:12:59.525Z,1.50
2018-07-02T14:15:30.445Z,1.60
2018-07-02T14:18:00.427Z,1.70
2018-07-02T14:20:30.330Z,1.90
2018-07-02T14:23:00.147Z,1.60
2018-07-02T14:25:30.281Z,1.90
2018-07-02T14:28:00.277Z,1.67
2018-07-02T14:30:30.412Z,2.10
2018-07-02T14:33:00.515Z,1.57
2018-07-02T14:38:52.189Z,1.50
2018-07-02T14:41:21.991Z,1.87
2018-07-02T14:43:52.201Z,1.73
2018-07-02T14:46:21.902Z,1.77
2018-07-02T14:48:51.475Z,1.70
2018-07-02T14:51:21.023Z,1.63
2018-07-02T14:53:50.954Z,1.53
2018-07-02T14:56:20.989Z,1.57
2018-07-02T14:58:51.088Z,1.70
2018-07-02T15:01:21.258Z,1.73
2018-07-02T15:03:51.230Z,1.60
2018-07-02T15:06:22.457Z,1.73
2018-07-02T15:08:52.354Z,1.50
2018-07-02T15:11:22.681Z,1.50
2018-07-02T15:13:52.646Z,1.40
2018-07-02T15:16:22.575Z,1.53
2018-07-02T15:18:52.494Z,1.40
2018-07-02T15:21:22.392Z,1.40
2018-07-02T15:23:52.325Z,1.70
2018-07-02T15:26:22.371Z,1.70
2018-07-02T15:28:52.170Z,1.60
2018-07-02T15:31:21.730Z,1.40
2018-07-02T15:33:51.601Z,1.70
2018-07-02T15:36:23.300Z,1.70
2018-07-02T15:38:53.478Z,1.57
2018-07-02T15:41:23.608Z,1.40
2018-07-02T15:43:53.800Z,1.63
2018-07-02T15:46:23.973Z,1.30
2018-07-02T15:48:53.933Z,1.30
2018-07-02T15:51:23.912Z,1.67
2018-07-02T15:53:53.766Z,1.50
2018-07-02T15:56:23.544Z,1.60
2018-07-02T15:58:53.297Z,1.40
2018-07-02T16:01:23.397Z,1.50
2018-07-02T16:03:53.289Z,1.50
2018-07-02T16:06:23.131Z,1.50
2018-07-02T16:08:53.126Z,1.40
2018-07-02T16:11:23.142Z,1.10
2018-07-02T16:13:52.931Z,1.50
2018-07-02T16:16:22.987Z,1.75
2018-07-02T16:18:52.641Z,1.20
2018-07-02T16:21:22.398Z,1.30
2018-07-02T16:23:53.337Z,1.20
2018-07-02T16:26:23.356Z,1.32
2018-07-02T16:28:53.446Z,1.30
2018-07-02T16:31:23.299Z,1.30
2018-07-02T16:33:53.356Z,1.30
2018-07-02T16:36:23.161Z,1.20
2018-07-02T16:38:53.069Z,1.15
2018-07-02T16:41:22.956Z,1.40
2018-07-02T16:43:52.923Z,1.50
2018-07-02T16:46:22.713Z,1.72
2018-07-02T16:48:52.326Z,2.22
2018-07-02T16:51:22.304Z,1.50
2018-07-02T16:53:52.247Z,1.20
2018-07-02T16:56:27.668Z,1.50
2018-07-02T16:58:57.576Z,1.20
2018-07-02T17:01:27.247Z,1.20
2018-07-02T17:03:57.240Z,1.32
2018-07-02T17:06:26.857Z,1.52
2018-07-02T17:08:56.920Z,1.45
2018-07-02T17:11:26.964Z,1.30
2018-07-02T17:13:57.077Z,1.40
2018-07-02T17:16:26.851Z,1.93
2018-07-02T17:18:56.531Z,1.30
2018-07-02T17:21:26.403Z,1.32
2018-07-02T17:23:56.226Z,1.30
2018-07-02T17:26:26.175Z,1.30
2018-07-02T17:28:56.477Z,1.50
2018-07-02T17:31:26.193Z,1.40
2018-07-02T17:33:56.069Z,1.30
2018-07-02T17:36:26.059Z,1.30
2018-07-02T17:38:56.040Z,1.30
2018-07-02T17:41:25.972Z,1.30
2018-07-02T17:43:55.914Z,1.30
2018-07-02T17:46:25.851Z,1.60
2018-07-02T17:48:57.726Z,1.50
2018-07-02T17:51:27.732Z,1.80
2018-07-02T17:53:57.864Z,2.10
2018-07-02T17:56:27.885Z,1.90
2018-07-02T17:58:57.918Z,2.40
2018-07-02T18:01:27.717Z,1.80
2018-07-02T18:03:57.556Z,2.20
2018-07-02T18:06:27.534Z,2.07
2018-07-02T18:08:57.432Z,1.70
2018-07-02T18:11:27.358Z,1.47
2018-07-02T18:13:57.271Z,3.50
2018-07-02T18:16:27.035Z,2.90
2018-07-02T18:18:56.984Z,2.63
2018-07-02T18:21:26.923Z,2.90
2018-07-02T18:23:56.815Z,3.40
2018-07-02T18:26:26.567Z,2.80
2018-07-02T18:28:56.301Z,2.20
2018-07-02T18:31:26.487Z,1.97
2018-07-02T18:33:56.426Z,1.90
2018-07-02T18:36:26.398Z,1.87
2018-07-02T18:38:56.427Z,2.00
2018-07-02T18:41:26.222Z,2.20
2018-07-02T18:43:56.140Z,2.50
2018-07-02T18:46:26.274Z,2.30
2018-07-02T18:48:56.119Z,2.17
2018-07-02T18:51:26.084Z,1.77
2018-07-02T18:53:56.056Z,1.30
2018-07-02T18:56:26.048Z,1.70
2018-07-02T18:58:55.744Z,1.60
2018-07-02T19:01:25.640Z,1.90
2018-07-02T19:03:55.577Z,1.40
2018-07-02T19:06:25.313Z,1.60
2018-07-02T19:08:55.316Z,1.30
2018-07-02T19:11:25.218Z,1.50
2018-07-02T19:13:55.074Z,1.50
2018-07-02T19:16:24.924Z,1.50
2018-07-02T19:18:54.802Z,1.53
2018-07-02T19:21:24.793Z,1.47
2018-07-02T19:23:55.004Z,1.70
2018-07-02T19:26:24.891Z,1.73
2018-07-02T19:28:54.623Z,1.70
2018-07-02T19:31:24.774Z,1.73
2018-07-02T19:33:54.918Z,1.50
2018-07-02T19:36:24.841Z,1.80
2018-07-02T19:38:54.669Z,1.73
2018-07-02T19:41:24.483Z,1.90
2018-07-02T19:43:54.415Z,1.80
2018-07-02T19:46:24.513Z,2.10
2018-07-02T19:48:54.576Z,2.17
2018-07-02T19:51:25.603Z,1.90
2018-07-02T19:53:55.467Z,2.10
2018-07-02T19:56:25.500Z,2.00
2018-07-02T19:58:55.326Z,2.10
2018-07-02T20:01:25.258Z,1.80
2018-07-02T20:03:55.180Z,2.07
2018-07-02T20:06:25.481Z,1.80
2018-07-02T20:08:55.478Z,2.07
2018-07-02T20:11:25.638Z,1.90
2018-07-02T20:13:55.649Z,1.73
2018-07-02T20:16:25.271Z,2.20
2018-07-02T20:18:55.174Z,2.73
2018-07-02T20:21:24.893Z,2.27
2018-07-02T20:23:54.576Z,2.63
2018-07-02T20:26:24.433Z,2.80
2018-07-02T20:28:54.452Z,2.57
2018-07-02T20:31:24.446Z,2.70
2018-07-02T20:33:54.188Z,2.87
2018-07-02T20:36:24.053Z,3.00
2018-07-02T20:38:53.910Z,3.80
2018-07-02T20:41:24.161Z,3.17
2018-07-02T20:43:54.011Z,3.80
2018-07-02T20:46:24.189Z,4.33
2018-07-02T20:48:54.201Z,3.60
2018-07-02T20:51:24.005Z,3.53
2018-07-02T20:53:53.746Z,3.33
2018-07-02T20:56:23.655Z,3.60
2018-07-02T20:58:53.429Z,3.00
2018-07-02T21:01:23.515Z,3.23
2018-07-02T21:03:53.297Z,3.37
2018-07-02T21:06:23.330Z,3.70
2018-07-02T21:08:53.169Z,3.50
2018-07-02T21:11:22.991Z,3.90
2018-07-02T21:13:52.844Z,4.10
2018-07-02T21:16:22.668Z,5.07
2018-07-02T21:18:53.366Z,5.60
2018-07-02T21:21:23.229Z,6.23
2018-07-02T21:23:53.105Z,4.90
2018-07-02T21:26:23.189Z,4.50
2018-07-02T21:28:53.254Z,4.43
2018-07-02T21:31:23.096Z,3.63
2018-07-02T21:33:52.919Z,3.70
2018-07-02T21:36:22.847Z,3.47
2018-07-02T21:38:52.939Z,3.40
2018-07-02T21:41:22.973Z,3.80
2018-07-02T21:43:53.005Z,3.10
2018-07-02T21:46:23.012Z,3.67
2018-07-02T21:48:53.049Z,3.40
2018-07-02T21:51:23.205Z,3.30
2018-07-02T21:53:54.030Z,3.27
2018-07-02T21:56:24.185Z,3.00
2018-07-02T21:58:55.208Z,3.47
2018-07-02T22:01:26.941Z,3.63
2018-07-02T22:03:57.097Z,3.20
2018-07-02T22:06:26.918Z,3.40
2018-07-02T22:08:56.574Z,3.20
2018-07-02T22:11:26.518Z,3.13
2018-07-02T22:13:56.673Z,3.50
2018-07-02T22:16:26.654Z,3.20
2018-07-02T22:18:56.704Z,4.07
2018-07-02T22:21:26.462Z,4.20
2018-07-02T22:23:56.244Z,4.60
2018-07-02T22:26:25.794Z,4.27
2018-07-02T22:28:55.744Z,4.40
2018-07-02T22:31:25.447Z,3.73
2018-07-02T22:33:55.331Z,3.80
2018-07-02T22:36:25.088Z,4.17
2018-07-02T22:38:54.861Z,3.70
2018-07-02T22:41:24.831Z,3.77
2018-07-02T22:43:54.570Z,3.43
2018-07-02T22:46:24.339Z,3.60
2018-07-02T22:48:54.928Z,3.90
2018-07-02T22:51:24.900Z,3.90
2018-07-02T22:53:54.664Z,3.63
2018-07-02T22:56:24.437Z,3.40
2018-07-02T22:58:54.212Z,3.23
2018-07-02T23:01:23.946Z,3.90
2018-07-02T23:03:53.878Z,3.70
2018-07-02T23:06:23.909Z,3.70
2018-07-02T23:08:53.661Z,3.53
2018-07-02T23:11:23.643Z,3.70
2018-07-02T23:13:53.438Z,3.70
2018-07-02T23:16:23.469Z,3.47
2018-07-02T23:18:53.272Z,3.67
2018-07-02T23:21:23.286Z,3.23
2018-07-02T23:23:53.302Z,3.70
2018-07-02T23:26:22.877Z,3.60
2018-07-02T23:28:54.696Z,4.00
2018-07-02T23:31:24.708Z,3.40
2018-07-02T23:33:54.457Z,3.50
2018-07-02T23:36:24.386Z,3.47
2018-07-02T23:38:54.231Z,3.17
2018-07-02T23:41:24.045Z,3.37
2018-07-02T23:43:54.149Z,2.90
2018-07-02T23:46:23.961Z,2.87
2018-07-02T23:48:53.874Z,3.20
2018-07-02T23:51:23.861Z,3.10
2018-07-02T23:53:53.516Z,3.40
2018-07-02T23:56:23.499Z,3.33
2018-07-02T23:58:53.604Z,3.00
